createdAt,value
2019-05-04T00:01:46.421Z,14.87
2019-05-04T00:04:14.723Z,13.40
2019-05-04T00:06:48.142Z,12.57
2019-05-04T00:09:09.292Z,12.80
2019-05-04T00:11:35.548Z,12.30
2019-05-04T00:14:01.879Z,13.90
2019-05-04T00:16:28.117Z,12.87
2019-05-04T00:18:55.135Z,14.13
2019-05-04T00:21:21.565Z,12.57
2019-05-04T00:23:47.787Z,12.63
2019-05-04T00:26:14.830Z,12.97
2019-05-04T00:28:41.213Z,13.70
2019-05-04T00:31:07.447Z,13.80
2019-05-04T00:33:36.235Z,14.67
2019-05-04T00:36:07.337Z,13.10
2019-05-04T00:38:34.917Z,12.67
2019-05-04T00:41:01.341Z,12.50
2019-05-04T00:43:27.593Z,12.17
2019-05-04T00:45:54.636Z,12.60
2019-05-04T00:48:21.099Z,11.27
2019-05-04T00:50:47.324Z,13.70
2019-05-04T00:53:14.450Z,11.90
2019-05-04T00:55:51.533Z,10.33
2019-05-04T01:01:04.605Z,10.63
2019-05-04T01:03:31.014Z,11.43
2019-05-04T01:05:57.275Z,11.60
2019-05-04T01:08:25.127Z,11.67
2019-05-04T01:10:51.563Z,11.10
2019-05-04T01:13:17.816Z,11.60
2019-05-04T01:15:44.542Z,11.50
2019-05-04T01:18:10.840Z,12.00
2019-05-04T01:20:37.072Z,10.53
2019-05-04T01:23:05.276Z,12.23
2019-05-04T01:25:31.458Z,10.90
2019-05-04T01:27:57.724Z,11.63
2019-05-04T01:30:25.525Z,11.90
2019-05-04T01:32:54.736Z,10.70
2019-05-04T01:35:21.234Z,11.33
2019-05-04T01:37:58.610Z,10.90
2019-05-04T01:40:32.616Z,11.60
2019-05-04T01:42:59.013Z,10.67
2019-05-04T01:45:25.364Z,11.60
2019-05-04T01:47:51.608Z,10.87
2019-05-04T01:50:17.865Z,11.13
2019-05-04T01:52:46.069Z,11.70
2019-05-04T01:55:12.522Z,10.30
2019-05-04T01:57:40.701Z,9.80
2019-05-04T02:00:10.234Z,9.57
2019-05-04T02:02:36.465Z,10.53
2019-05-04T02:05:05.330Z,9.87
2019-05-04T02:07:42.829Z,10.97
2019-05-04T02:10:00.061Z,10.03
2019-05-04T02:12:26.342Z,10.03
2019-05-04T02:14:52.583Z,10.50
2019-05-04T02:17:20.876Z,10.90
2019-05-04T02:19:47.113Z,10.70
2019-05-04T02:22:15.280Z,10.30
2019-05-04T02:24:44.750Z,10.30
2019-05-04T02:27:15.562Z,10.97
2019-05-04T02:29:45.953Z,9.10
2019-05-04T02:32:16.110Z,9.70
2019-05-04T02:34:45.278Z,8.77
2019-05-04T02:37:10.524Z,10.10
2019-05-04T02:39:36.834Z,10.03
2019-05-04T02:42:06.171Z,9.73
2019-05-04T02:44:31.824Z,9.73
2019-05-04T02:47:00.081Z,8.90
2019-05-04T02:49:36.004Z,8.90
2019-05-04T02:52:06.917Z,9.40
2019-05-04T02:54:35.866Z,10.10
2019-05-04T02:57:00.842Z,8.70
2019-05-04T02:59:27.134Z,9.97
2019-05-04T03:01:55.376Z,9.80
2019-05-04T03:04:21.678Z,9.50
2019-05-04T03:06:48.028Z,8.50
2019-05-04T03:09:15.896Z,9.27
2019-05-04T03:11:45.663Z,9.00
2019-05-04T03:14:11.560Z,9.77
2019-05-04T03:16:45.722Z,8.77
2019-05-04T03:19:16.929Z,8.37
2019-05-04T03:21:46.065Z,9.17
2019-05-04T03:24:31.259Z,9.80
2019-05-04T03:26:57.884Z,9.77
2019-05-04T03:29:26.268Z,9.90
2019-05-04T03:31:57.467Z,8.97
2019-05-04T03:34:46.616Z,9.90
2019-05-04T03:36:49.636Z,9.10
2019-05-04T03:39:16.229Z,10.23
2019-05-04T03:41:44.964Z,10.73
2019-05-04T03:44:10.702Z,9.50
2019-05-04T03:46:56.907Z,9.83
2019-05-04T03:49:41.527Z,9.07
2019-05-04T03:52:07.768Z,8.87
2019-05-04T03:54:36.341Z,9.53
2019-05-04T03:57:05.239Z,10.40
2019-05-04T03:59:30.478Z,10.10
2019-05-04T04:01:56.726Z,9.30
2019-05-04T04:04:25.662Z,9.93
2019-05-04T04:06:51.348Z,10.60
2019-05-04T04:09:19.418Z,8.90
2019-05-04T04:11:45.854Z,9.07
2019-05-04T04:14:12.093Z,8.53
2019-05-04T04:16:45.352Z,8.60
2019-05-04T04:19:11.283Z,9.30
2019-05-04T04:21:37.579Z,8.60
2019-05-04T04:24:06.666Z,9.07
2019-05-04T04:26:46.669Z,10.10
2019-05-04T04:29:15.955Z,9.00
2019-05-04T04:31:45.628Z,10.00
2019-05-04T04:34:10.603Z,9.30
2019-05-04T04:36:39.213Z,10.60
2019-05-04T04:39:24.134Z,9.80
2019-05-04T04:41:35.794Z,9.77
2019-05-04T04:44:02.821Z,9.40
2019-05-04T04:46:29.107Z,9.43
2019-05-04T04:48:55.894Z,9.50
2019-05-04T04:51:25.938Z,9.30
2019-05-04T04:53:51.023Z,9.33
2019-05-04T04:56:26.002Z,10.63
2019-05-04T04:59:00.716Z,9.70
2019-05-04T05:01:29.099Z,9.73
2019-05-04T05:04:02.797Z,8.73
2019-05-04T05:07:05.034Z,9.27
2019-05-04T05:09:45.037Z,9.23
2019-05-04T05:12:06.868Z,9.50
2019-05-04T05:14:35.339Z,9.47
2019-05-04T05:17:04.435Z,10.37
2019-05-04T05:19:31.219Z,8.03
2019-05-04T05:21:57.469Z,8.60
2019-05-04T05:24:25.118Z,8.47
2019-05-04T05:26:54.427Z,8.63
2019-05-04T05:29:20.740Z,6.80
2019-05-04T05:31:48.908Z,7.37
2019-05-04T05:34:25.035Z,6.60
2019-05-04T05:36:55.208Z,6.93
2019-05-04T05:39:21.497Z,6.90
2019-05-04T05:41:50.057Z,7.00
2019-05-04T05:44:16.249Z,5.90
2019-05-04T05:46:54.524Z,5.43
2019-05-04T05:49:40.770Z,6.33
2019-05-04T05:52:11.553Z,5.40
2019-05-04T05:54:56.968Z,5.70
2019-05-04T05:57:42.351Z,5.67
2019-05-04T06:00:24.993Z,6.30
2019-05-04T06:03:09.627Z,6.47
2019-05-04T06:05:38.309Z,5.60
2019-05-04T06:08:09.782Z,7.03
2019-05-04T06:10:38.181Z,6.37
2019-05-04T06:13:09.437Z,6.13
2019-05-04T06:15:38.584Z,5.47
2019-05-04T06:18:15.095Z,6.00
2019-05-04T06:20:58.487Z,5.00
2019-05-04T06:23:34.835Z,4.90
2019-05-04T06:26:07.757Z,5.00
2019-05-04T06:28:44.795Z,4.77
2019-05-04T06:31:14.993Z,4.07
2019-05-04T06:33:44.552Z,4.40
2019-05-04T06:36:29.266Z,6.03
2019-05-04T06:38:57.406Z,4.70
2019-05-04T06:41:32.993Z,6.10
2019-05-04T06:44:02.049Z,5.77
2019-05-04T06:46:30.385Z,5.87
2019-05-04T06:48:55.100Z,6.47
2019-05-04T06:51:24.151Z,7.27
2019-05-04T06:53:54.282Z,6.30
2019-05-04T06:56:28.870Z,6.10
2019-05-04T06:59:05.929Z,6.50
2019-05-04T07:01:34.535Z,7.30
2019-05-04T07:04:00.581Z,7.10
2019-05-04T07:06:29.775Z,7.10
2019-05-04T07:08:55.103Z,7.30
2019-05-04T07:11:29.272Z,6.87
2019-05-04T07:13:50.181Z,7.50
2019-05-04T07:16:17.674Z,7.70
2019-05-04T07:18:44.544Z,8.13
2019-05-04T07:21:15.845Z,7.17
2019-05-04T07:23:39.033Z,7.83
2019-05-04T07:26:05.261Z,7.80
2019-05-04T07:28:38.707Z,7.50
2019-05-04T07:31:10.148Z,7.03
2019-05-04T07:33:56.176Z,8.00
2019-05-04T07:36:25.788Z,7.13
2019-05-04T07:38:56.685Z,7.50
2019-05-04T07:41:41.254Z,8.13
2019-05-04T07:43:52.270Z,8.50
2019-05-04T07:46:18.902Z,7.90
2019-05-04T07:48:48.878Z,7.93
2019-05-04T07:51:13.268Z,5.97
2019-05-04T07:53:41.191Z,6.50
2019-05-04T07:56:07.699Z,6.33
2019-05-04T07:58:34.438Z,6.57
2019-05-04T08:01:00.788Z,7.50
2019-05-04T08:03:29.291Z,8.27
2019-05-04T08:05:55.292Z,7.07
2019-05-04T08:08:30.704Z,5.80
2019-05-04T08:11:04.729Z,5.90
2019-05-04T08:13:29.919Z,5.47
2019-05-04T08:15:56.442Z,5.13
2019-05-04T08:18:24.539Z,5.57
2019-05-04T08:20:59.200Z,5.33
2019-05-04T08:23:20.875Z,5.40
2019-05-04T08:25:50.381Z,4.97
2019-05-04T08:28:18.491Z,6.10
2019-05-04T08:30:46.036Z,5.03
2019-05-04T08:33:11.748Z,4.77
2019-05-04T08:35:37.994Z,5.33
2019-05-04T08:38:09.973Z,5.80
2019-05-04T08:40:34.977Z,5.33
2019-05-04T08:43:03.750Z,4.63
2019-05-04T08:45:30.151Z,4.80
2019-05-04T08:47:59.012Z,5.07
2019-05-04T08:50:25.458Z,6.07
2019-05-04T08:53:01.501Z,4.50
2019-05-04T08:55:30.552Z,4.60
2019-05-04T09:00:42.426Z,5.00
2019-05-04T09:03:22.833Z,5.40
2019-05-04T09:05:52.764Z,4.70
2019-05-04T09:06:08.968Z,6.10
2019-05-04T09:08:18.403Z,6.40
2019-05-04T09:11:04.911Z,5.10
2019-05-04T09:13:14.615Z,6.07
2019-05-04T09:15:40.915Z,5.93
2019-05-04T09:18:07.201Z,5.33
2019-05-04T09:20:34.518Z,5.70
2019-05-04T09:23:01.557Z,5.10
2019-05-04T09:25:29.361Z,6.17
2019-05-04T09:28:00.398Z,4.80
2019-05-04T09:30:25.030Z,5.27
2019-05-04T09:32:51.452Z,3.57
2019-05-04T09:35:18.229Z,3.33
2019-05-04T09:37:44.741Z,3.53
2019-05-04T09:40:11.442Z,3.47
2019-05-04T09:42:50.805Z,4.27
2019-05-04T09:45:19.497Z,4.60
2019-05-04T09:47:44.967Z,5.00
2019-05-04T09:50:18.311Z,4.90
2019-05-04T09:52:46.127Z,4.50
2019-05-04T09:55:10.028Z,4.50
2019-05-04T09:57:40.235Z,5.07
2019-05-04T10:00:08.163Z,4.37
2019-05-04T10:02:34.908Z,4.53
2019-05-04T10:05:01.175Z,4.83
2019-05-04T10:07:27.448Z,4.70
2019-05-04T10:09:54.732Z,5.60
2019-05-04T10:12:44.647Z,4.70
2019-05-04T10:15:02.114Z,3.60
2019-05-04T10:17:30.267Z,4.70
2019-05-04T10:19:56.605Z,4.60
2019-05-04T10:22:24.830Z,4.63
2019-05-04T10:24:51.103Z,5.17
2019-05-04T10:27:24.783Z,4.20
2019-05-04T10:29:51.733Z,4.10
2019-05-04T10:32:18.246Z,4.07
2019-05-04T10:34:45.808Z,4.10
2019-05-04T10:37:12.097Z,3.60
2019-05-04T10:39:39.108Z,3.27
2019-05-04T10:42:06.735Z,4.00
2019-05-04T10:44:34.843Z,4.17
2019-05-04T10:47:01.364Z,3.77
2019-05-04T10:49:44.386Z,3.40
2019-05-04T10:52:12.408Z,2.90
2019-05-04T10:54:40.234Z,3.43
2019-05-04T10:57:08.024Z,3.27
2019-05-04T10:59:35.748Z,2.73
2019-05-04T11:02:05.217Z,2.83
2019-05-04T11:04:35.795Z,3.17
2019-05-04T11:07:07.038Z,3.40
2019-05-04T11:09:35.208Z,3.17
2019-05-04T11:12:04.846Z,3.50
2019-05-04T11:14:34.700Z,3.20
2019-05-04T11:17:04.696Z,4.00
2019-05-04T11:19:34.822Z,3.17
2019-05-04T11:22:01.297Z,3.17
2019-05-04T11:24:33.537Z,2.77
2019-05-04T11:27:09.125Z,2.77
2019-05-04T11:29:51.153Z,2.90
2019-05-04T11:32:24.070Z,3.50
2019-05-04T11:34:50.410Z,3.10
2019-05-04T11:37:16.666Z,3.90
2019-05-04T11:39:44.631Z,3.40
2019-05-04T11:42:16.666Z,3.30
2019-05-04T11:44:48.222Z,3.80
2019-05-04T11:47:17.722Z,3.17
2019-05-04T11:49:46.034Z,3.30
2019-05-04T11:52:14.725Z,2.83
2019-05-04T11:54:42.313Z,3.40
2019-05-04T11:57:14.617Z,3.77
2019-05-04T11:59:45.247Z,3.20
2019-05-04T12:02:14.409Z,2.90
2019-05-04T12:05:01.287Z,3.77
2019-05-04T12:07:47.650Z,3.30
2019-05-04T12:10:21.756Z,4.13
2019-05-04T12:12:55.008Z,3.03
2019-05-04T12:15:24.646Z,3.47
2019-05-04T12:18:28.343Z,3.67
2019-05-04T12:20:59.843Z,3.20
2019-05-04T12:23:27.598Z,3.27
2019-05-04T12:25:54.371Z,3.57
2019-05-04T12:28:29.408Z,3.97
2019-05-04T12:31:02.117Z,4.10
2019-05-04T12:33:35.343Z,4.00
2019-05-04T12:36:05.759Z,4.00
2019-05-04T12:38:58.974Z,4.10
2019-05-04T12:41:35.884Z,3.30
2019-05-04T12:44:05.682Z,3.80
2019-05-04T12:46:34.188Z,3.10
2019-05-04T12:49:00.331Z,2.90
2019-05-04T12:51:26.586Z,2.60
2019-05-04T12:53:55.050Z,1.90
2019-05-04T12:56:20.968Z,1.63
2019-05-04T12:58:49.384Z,1.17
2019-05-04T13:01:15.360Z,1.27
2019-05-04T13:03:41.832Z,1.17
2019-05-04T13:06:08.093Z,1.10
2019-05-04T13:08:35.055Z,1.23
2019-05-04T13:11:01.509Z,1.43
2019-05-04T13:13:27.736Z,1.50
2019-05-04T13:15:55.605Z,1.13
2019-05-04T13:18:29.796Z,1.40
2019-05-04T13:20:56.041Z,1.80
2019-05-04T13:23:24.309Z,1.60
2019-05-04T13:25:50.598Z,1.43
2019-05-04T13:28:16.839Z,1.43
2019-05-04T13:30:44.400Z,1.50
2019-05-04T13:33:10.801Z,1.40
2019-05-04T13:35:37.799Z,1.50
2019-05-04T13:38:05.079Z,1.70
2019-05-04T13:40:31.428Z,2.00
2019-05-04T13:42:57.690Z,1.70
2019-05-04T13:45:25.320Z,1.70
2019-05-04T13:47:51.633Z,1.67
2019-05-04T13:50:27.610Z,1.47
2019-05-04T13:52:53.872Z,1.77
2019-05-04T13:55:24.709Z,1.80
2019-05-04T13:57:54.468Z,1.70
2019-05-04T14:00:28.571Z,1.50
2019-05-04T14:03:02.423Z,1.53
2019-05-04T14:05:28.719Z,1.67
2019-05-04T14:07:54.978Z,1.80
2019-05-04T14:10:21.306Z,1.90
2019-05-04T14:12:47.680Z,1.93
2019-05-04T14:15:18.475Z,2.43
2019-05-04T14:17:44.206Z,1.90
2019-05-04T14:20:10.626Z,1.87
2019-05-04T14:22:44.823Z,2.10
2019-05-04T14:25:11.294Z,1.90
2019-05-04T14:27:37.626Z,1.57
2019-05-04T14:30:05.333Z,1.70
2019-05-04T14:32:31.575Z,1.50
2019-05-04T14:34:57.818Z,1.70
2019-05-04T14:37:24.500Z,1.67
2019-05-04T14:39:51.037Z,1.40
2019-05-04T14:42:17.306Z,1.87
2019-05-04T14:44:58.404Z,1.70
2019-05-04T14:47:35.738Z,1.40
2019-05-04T14:50:06.324Z,1.30
2019-05-04T14:52:34.354Z,1.23
2019-05-04T14:55:00.960Z,1.30
2019-05-04T14:57:27.380Z,1.10
2019-05-04T14:59:53.628Z,1.23
2019-05-04T15:02:19.900Z,1.20
2019-05-04T15:04:46.166Z,1.20
2019-05-04T15:07:14.433Z,1.10
2019-05-04T15:09:40.914Z,1.33
2019-05-04T15:12:07.180Z,1.00
2019-05-04T15:14:34.550Z,1.50
2019-05-04T15:17:00.981Z,1.53
2019-05-04T15:19:31.804Z,1.27
2019-05-04T15:22:00.284Z,1.67
2019-05-04T15:24:26.567Z,1.43
2019-05-04T15:26:55.156Z,1.50
2019-05-04T15:29:21.188Z,1.60
2019-05-04T15:31:47.466Z,1.23
2019-05-04T15:34:14.542Z,1.20
2019-05-04T15:36:40.953Z,1.20
2019-05-04T15:39:07.316Z,1.17
2019-05-04T15:41:34.796Z,1.00
2019-05-04T15:44:02.241Z,0.90
2019-05-04T15:46:28.487Z,0.90
2019-05-04T15:48:55.451Z,1.10
2019-05-04T15:51:29.933Z,0.90
2019-05-04T15:54:00.805Z,10.20
2019-05-04T15:56:45.478Z,3.87
2019-05-04T15:59:14.452Z,2.60
2019-05-04T16:01:40.906Z,1.20
2019-05-04T16:04:07.170Z,2.10
2019-05-04T16:06:34.259Z,1.57
2019-05-04T16:09:01.496Z,2.10
2019-05-04T16:11:27.775Z,1.20
2019-05-04T16:13:54.471Z,1.40
2019-05-04T16:16:20.999Z,1.53
2019-05-04T16:18:47.391Z,1.97
2019-05-04T16:21:15.395Z,1.57
2019-05-04T16:23:44.075Z,1.63
2019-05-04T16:26:10.161Z,1.30
2019-05-04T16:28:36.676Z,1.50
2019-05-04T16:31:03.257Z,1.53
2019-05-04T16:33:29.582Z,1.40
2019-05-04T16:35:56.485Z,1.70
2019-05-04T16:38:24.777Z,1.80
2019-05-04T16:40:51.075Z,1.50
2019-05-04T16:43:17.712Z,1.57
2019-05-04T16:45:55.389Z,1.50
2019-05-04T16:48:14.367Z,1.53
2019-05-04T16:50:42.283Z,1.77
2019-05-04T16:53:10.560Z,1.57
2019-05-04T16:55:37.141Z,1.73
2019-05-04T16:58:04.801Z,2.10
2019-05-04T17:00:39.540Z,1.90
2019-05-04T17:03:10.730Z,2.10
2019-05-04T17:05:37.264Z,2.07
2019-05-04T17:08:05.472Z,2.00
2019-05-04T17:10:32.068Z,1.70
2019-05-04T17:12:58.629Z,2.10
2019-05-04T17:15:25.063Z,2.13
2019-05-04T17:17:55.617Z,2.10
2019-05-04T17:20:25.494Z,2.40
2019-05-04T17:22:52.314Z,1.93
2019-05-04T17:25:25.227Z,1.80
2019-05-04T17:27:59.525Z,2.60
2019-05-04T17:30:44.332Z,2.40
2019-05-04T17:33:10.674Z,2.77
2019-05-04T17:35:37.443Z,2.50
2019-05-04T17:38:05.426Z,2.60
2019-05-04T17:40:34.883Z,2.10
2019-05-04T17:43:06.098Z,2.60
2019-05-04T17:45:34.672Z,2.53
2019-05-04T17:48:01.129Z,2.03
2019-05-04T17:50:27.697Z,2.17
2019-05-04T17:52:54.930Z,2.30
2019-05-04T17:55:21.374Z,2.80
2019-05-04T17:57:50.346Z,2.00
2019-05-04T18:00:20.344Z,2.57
2019-05-04T18:02:48.523Z,2.67
2019-05-04T18:05:15.090Z,2.30
2019-05-04T18:07:41.652Z,2.50
2019-05-04T18:10:08.915Z,2.30
2019-05-04T18:12:37.149Z,2.90
2019-05-04T18:15:24.899Z,3.13
2019-05-04T18:17:55.010Z,2.77
2019-05-04T18:20:21.550Z,2.60
2019-05-04T18:22:47.960Z,2.50
2019-05-04T18:25:14.595Z,3.63
2019-05-04T18:27:40.982Z,2.40
2019-05-04T18:30:10.638Z,2.47
2019-05-04T18:32:37.891Z,2.73
2019-05-04T18:35:05.597Z,2.33
2019-05-04T18:37:31.952Z,2.40
2019-05-04T18:40:00.487Z,2.60
2019-05-04T18:42:28.980Z,2.53
2019-05-04T18:45:14.170Z,2.53
2019-05-04T18:48:14.644Z,2.70
2019-05-04T18:50:42.156Z,2.33
2019-05-04T18:53:08.463Z,2.53
2019-05-04T18:55:56.987Z,2.30
2019-05-04T18:58:24.815Z,2.50
2019-05-04T19:00:51.628Z,2.63
2019-05-04T19:03:19.582Z,2.33
2019-05-04T19:05:51.314Z,2.73
2019-05-04T19:08:24.509Z,2.50
2019-05-04T19:10:54.301Z,2.30
2019-05-04T19:13:24.740Z,2.63
2019-05-04T19:15:52.583Z,2.33
2019-05-04T19:18:20.343Z,2.50
2019-05-04T19:20:48.300Z,2.87
2019-05-04T19:23:16.179Z,2.43
2019-05-04T19:25:48.859Z,3.10
2019-05-04T19:28:28.983Z,3.73
2019-05-04T19:30:57.889Z,3.57
2019-05-04T19:33:26.011Z,3.30
2019-05-04T19:35:55.598Z,4.60
2019-05-04T19:38:24.221Z,4.00
2019-05-04T19:40:53.917Z,3.63
2019-05-04T19:43:33.097Z,4.40
2019-05-04T19:46:20.607Z,5.03
2019-05-04T19:48:50.726Z,5.07
2019-05-04T19:51:18.558Z,3.90
2019-05-04T19:53:47.827Z,5.20
2019-05-04T19:56:16.347Z,4.10
2019-05-04T19:58:45.182Z,4.43
2019-05-04T20:01:14.766Z,4.50
2019-05-04T20:03:44.435Z,4.67
2019-05-04T20:06:13.346Z,3.90
2019-05-04T20:08:59.702Z,4.00
2019-05-04T20:12:08.190Z,4.20
2019-05-04T20:15:03.478Z,4.40
2019-05-04T20:17:07.916Z,3.50
2019-05-04T20:19:36.392Z,4.10
2019-05-04T20:22:04.766Z,3.83
2019-05-04T20:24:34.905Z,4.00
2019-05-04T20:27:06.445Z,4.30
2019-05-04T20:29:31.808Z,3.40
2019-05-04T20:31:59.015Z,4.30
2019-05-04T20:34:25.653Z,4.40
2019-05-04T20:36:55.770Z,3.90
2019-05-04T20:39:24.254Z,3.70
2019-05-04T20:41:52.431Z,3.37
2019-05-04T20:44:34.346Z,4.53
2019-05-04T20:47:11.883Z,3.97
2019-05-04T20:49:40.102Z,3.80
2019-05-04T20:52:07.316Z,3.73
2019-05-04T20:54:55.005Z,3.23
2019-05-04T20:57:22.056Z,3.37
2019-05-04T20:59:48.319Z,3.70
2019-05-04T21:02:19.359Z,3.60
2019-05-04T21:05:04.342Z,4.30
2019-05-04T21:07:31.856Z,3.83
2019-05-04T21:09:58.157Z,4.00
2019-05-04T21:12:38.593Z,3.97
2019-05-04T21:15:06.970Z,3.70
2019-05-04T21:18:01.811Z,4.17
2019-05-04T21:20:38.807Z,3.50
2019-05-04T21:23:05.465Z,4.00
2019-05-04T21:25:31.777Z,4.00
2019-05-04T21:27:58.039Z,3.10
2019-05-04T21:30:24.892Z,3.83
2019-05-04T21:32:51.480Z,4.33
2019-05-04T21:35:17.731Z,4.30
2019-05-04T21:37:45.727Z,3.43
2019-05-04T21:40:31.137Z,3.47
2019-05-04T21:42:58.674Z,3.80
2019-05-04T21:45:45.355Z,3.00
2019-05-04T21:48:21.057Z,3.83
2019-05-04T21:50:58.632Z,4.20
2019-05-04T21:53:26.204Z,3.90
2019-05-04T21:55:52.448Z,4.07
2019-05-04T21:58:18.859Z,3.37
2019-05-04T22:00:47.301Z,4.53
2019-05-04T22:03:21.828Z,4.17
2019-05-04T22:05:48.066Z,3.70
2019-05-04T22:08:14.572Z,3.90
2019-05-04T22:10:41.014Z,3.07
2019-05-04T22:13:07.247Z,3.27
2019-05-04T22:15:34.472Z,3.40
2019-05-04T22:18:00.988Z,3.90
2019-05-04T22:20:27.246Z,3.20
2019-05-04T22:22:57.379Z,3.43
2019-05-04T22:25:22.119Z,3.30
2019-05-04T22:27:48.373Z,3.80
2019-05-04T22:30:14.934Z,3.43
2019-05-04T22:32:42.459Z,4.13
2019-05-04T22:35:09.343Z,3.90
2019-05-04T22:37:37.508Z,3.40
2019-05-04T22:40:07.618Z,3.90
2019-05-04T22:42:34.458Z,3.60
2019-05-04T22:45:00.748Z,4.13
2019-05-04T22:47:27.124Z,3.67
2019-05-04T22:49:55.228Z,3.63
2019-05-04T22:52:23.599Z,3.70
2019-05-04T22:54:51.790Z,3.47
2019-05-04T22:57:19.953Z,3.77
2019-05-04T23:00:04.771Z,3.73
2019-05-04T23:02:35.534Z,3.50
2019-05-04T23:05:06.534Z,3.60
2019-05-04T23:07:33.937Z,3.27
2019-05-04T23:10:05.091Z,3.40
2019-05-04T23:12:31.484Z,3.50
2019-05-04T23:15:00.377Z,4.00
2019-05-04T23:17:27.233Z,3.53
2019-05-04T23:19:54.601Z,3.23
2019-05-04T23:22:38.161Z,3.47
2019-05-04T23:25:08.339Z,4.07
2019-05-04T23:27:35.336Z,3.90
2019-05-04T23:30:07.093Z,4.03
2019-05-04T23:32:34.848Z,3.63
2019-05-04T23:35:01.262Z,3.90
2019-05-04T23:37:27.560Z,3.57
2019-05-04T23:39:55.091Z,3.60
2019-05-04T23:42:21.555Z,4.10
2019-05-04T23:44:48.026Z,3.87
2019-05-04T23:47:16.194Z,3.57
2019-05-04T23:49:44.427Z,3.20
2019-05-04T23:52:10.669Z,3.80
2019-05-04T23:54:36.979Z,3.73
2019-05-04T23:57:05.012Z,2.90
2019-05-04T23:59:31.525Z,3.60
